createdAt,value
2018-02-23T00:04:00.000Z,26.066
2018-02-23T00:14:00.000Z,26.228
2018-02-23T00:24:00.000Z,26.348
2018-02-23T00:34:00.000Z,26.425
2018-02-23T00:44:00.000Z,26.423
2018-02-23T00:54:00.000Z,26.301
2018-02-23T01:04:00.000Z,26.179
2018-02-23T01:14:00.000Z,26.111
2018-02-23T01:24:00.000Z,26.077
2018-02-23T01:34:00.000Z,25.998
2018-02-23T01:44:00.000Z,25.855
2018-02-23T01:54:00.000Z,26.003
2018-02-23T02:04:00.000Z,25.894
2018-02-23T02:14:00.000Z,25.86
2018-02-23T02:24:00.000Z,25.792
2018-02-23T02:34:00.000Z,25.769
2018-02-23T02:44:00.000Z,25.766
2018-02-23T02:54:00.000Z,25.657
2018-02-23T03:04:00.000Z,25.72
2018-02-23T03:14:00.000Z,25.718
2018-02-23T03:24:00.000Z,25.706
2018-02-23T03:34:00.000Z,25.726
2018-02-23T03:44:00.000Z,25.736
2018-02-23T03:54:00.000Z,25.734
2018-02-23T04:04:00.000Z,25.755
2018-02-23T04:14:00.000Z,25.819
2018-02-23T04:24:00.000Z,25.925
2018-02-23T04:34:00.000Z,25.903
2018-02-23T04:44:00.000Z,25.945
2018-02-23T04:54:00.000Z,26.16
2018-02-23T05:04:00.000Z,26.169
2018-02-23T05:14:00.000Z,26.049
2018-02-23T05:24:00.000Z,25.778
2018-02-23T05:34:01.000Z,25.82
2018-02-23T05:44:01.000Z,25.526
2018-02-23T05:54:01.000Z,25.644
2018-02-23T06:04:01.000Z,25.405
2018-02-23T06:14:01.000Z,25.307
2018-02-23T06:24:01.000Z,25.056
2018-02-23T06:34:01.000Z,25.056
2018-02-23T06:44:01.000Z,24.882
2018-02-23T06:54:01.000Z,24.783
2018-02-23T07:04:01.000Z,24.543
2018-02-23T07:14:01.000Z,24.456
2018-02-23T07:24:01.000Z,24.293
2018-02-23T07:34:01.000Z,24.033
2018-02-23T07:44:01.000Z,24.001
2018-02-23T07:54:01.000Z,23.95
2018-02-23T08:04:01.000Z,24.823
2018-02-23T08:14:01.000Z,25.48
2018-02-23T08:24:01.000Z,25.485
2018-02-23T08:34:01.000Z,25.678
2018-02-23T08:44:01.000Z,25.83
2018-02-23T08:54:01.000Z,25.742
2018-02-23T09:04:01.000Z,25.753
2018-02-23T09:14:01.000Z,25.428
2018-02-23T09:24:01.000Z,25.277
2018-02-23T09:34:01.000Z,25.432
2018-02-23T09:44:01.000Z,25.585
2018-02-23T09:54:01.000Z,24.389
2018-02-23T10:04:01.000Z,24.367
2018-02-23T10:14:01.000Z,23.597
2018-02-23T10:24:01.000Z,22.87
2018-02-23T10:34:01.000Z,22.502
2018-02-23T10:44:01.000Z,21.882
2018-02-23T10:54:01.000Z,21.736
2018-02-23T11:04:01.000Z,21.012
2018-02-23T11:14:01.000Z,20.642
2018-02-23T11:24:01.000Z,20.437
2018-02-23T11:34:01.000Z,20.12
2018-02-23T11:44:01.000Z,19.958
2018-02-23T11:54:01.000Z,19.884
2018-02-23T12:04:01.000Z,19.941
2018-02-23T12:14:01.000Z,19.974
2018-02-23T12:24:01.000Z,20.02
2018-02-23T12:34:01.000Z,20.054
2018-02-23T12:44:01.000Z,19.668
2018-02-23T12:54:01.000Z,19.614
2018-02-23T13:04:01.000Z,20.019
2018-02-23T13:14:01.000Z,20.282
2018-02-23T13:24:01.000Z,20.27
2018-02-23T13:34:01.000Z,20.083
2018-02-23T13:44:02.000Z,19.72
2018-02-23T13:54:02.000Z,19.763
2018-02-23T14:04:02.000Z,20.014
2018-02-23T14:14:02.000Z,20.102
2018-02-23T14:24:02.000Z,20.442
2018-02-23T14:34:02.000Z,20.266
2018-02-23T14:44:02.000Z,20.615
2018-02-23T14:54:02.000Z,20.385
2018-02-23T15:04:02.000Z,20.624
2018-02-23T15:14:02.000Z,20.842
2018-02-23T15:24:02.000Z,21.018
2018-02-23T15:34:02.000Z,21.081
2018-02-23T15:44:02.000Z,21.223
2018-02-23T15:54:02.000Z,21.485
2018-02-23T16:04:02.000Z,21.473
2018-02-23T16:14:02.000Z,21.572
2018-02-23T16:24:02.000Z,21.133
2018-02-23T16:34:02.000Z,21.362
2018-02-23T16:44:02.000Z,21.568
2018-02-23T16:54:02.000Z,21.599
2018-02-23T17:04:02.000Z,21.752
2018-02-23T17:14:02.000Z,21.673
2018-02-23T17:24:02.000Z,22.087
2018-02-23T17:34:02.000Z,22.208
2018-02-23T17:44:02.000Z,22.447
2018-02-23T17:54:02.000Z,22.553
2018-02-23T18:04:02.000Z,22.727
2018-02-23T18:14:02.000Z,22.705
2018-02-23T18:24:02.000Z,22.867
2018-02-23T18:34:02.000Z,22.79
2018-02-23T18:44:02.000Z,23.073
2018-02-23T18:54:02.000Z,22.94
2018-02-23T19:04:03.000Z,23.047
2018-02-23T19:14:02.000Z,23.046
2018-02-23T19:24:02.000Z,23.177
2018-02-23T19:34:02.000Z,23.143
2018-02-23T19:44:02.000Z,23.153
2018-02-23T19:54:02.000Z,23.228
2018-02-23T20:04:02.000Z,23.271
2018-02-23T20:14:02.000Z,23.115
2018-02-23T20:24:02.000Z,23.169
2018-02-23T20:34:02.000Z,23.31
2018-02-23T20:44:02.000Z,23.31
2018-02-23T20:54:06.000Z,23.529
2018-02-23T21:04:02.000Z,23.551
2018-02-23T21:14:02.000Z,23.583
2018-02-23T21:34:02.000Z,23.769
2018-02-23T21:44:02.000Z,23.802
2018-02-23T21:54:03.000Z,23.823
2018-02-23T22:04:03.000Z,23.812
2018-02-23T22:14:03.000Z,23.954
2018-02-23T22:24:03.000Z,24.007
2018-02-23T22:34:03.000Z,23.866
2018-02-23T22:44:03.000Z,24.149
2018-02-23T22:54:03.000Z,24.278
2018-02-23T23:04:03.000Z,24.288
2018-02-23T23:14:03.000Z,24.485
2018-02-23T23:24:03.000Z,24.67
2018-02-23T23:34:03.000Z,24.646
2018-02-23T23:44:03.000Z,24.686
2018-02-23T23:54:03.000Z,24.541
